Almelund, Minnesota
Current Conditions -  °F | °C
As of 3:15 PM on Saturday 25 Oct 2014 (Local Time) from KOEO Reporting Station
Clear Clear  
Wind Chill: 63°   Ceiling: Unl
Heat Index: 63°   Visibility: 10mi
Dew Point: 26°   Wind: 17mph
Humidity: 25%   Direction: 270°W
Pressure: 30.03"   Gusts: 22mph
Location:  45.49°N, 92.79°W
Report Text: KOEO 252015Z AUTO 27015G19KT 10SM CLR 17/M03 A3003 RMK AO2 T01711032
Loading
Personal Weather Stations






























Interactive Weather Map
Tropical Storm Tracking
New forecast layout! Learn more

10-Day Weather Forecast

Advertisements
Track Severe Weather on mobile